createdAt,value
2019-04-19T00:00:17.478Z,63.76
2019-04-19T00:01:44.708Z,63.2
2019-04-19T00:03:30.464Z,62.34
2019-04-19T00:05:00.424Z,62.34
2019-04-19T00:06:29.339Z,61.68
2019-04-19T00:08:15.159Z,61.58
2019-04-19T00:10:48.301Z,61.39
2019-04-19T00:12:53.268Z,61.58
2019-04-19T00:14:15.165Z,61.77
2019-04-19T00:15:26.886Z,62.05
2019-04-19T00:16:40.950Z,61.96
2019-04-19T00:18:06.000Z,62.05
2019-04-19T00:20:21.781Z,62.82
2019-04-19T00:23:26.793Z,62.88
2019-04-19T00:24:56.863Z,63.45
2019-04-19T00:26:08.703Z,62.5
2019-04-19T00:27:23.843Z,62.59
2019-04-19T00:29:17.709Z,62.4
2019-04-19T00:31:33.747Z,63.35
2019-04-19T00:33:48.262Z,62.59
2019-04-19T00:35:07.793Z,63.54
2019-04-19T00:36:21.423Z,63.45
2019-04-19T00:37:33.483Z,63.26
2019-04-19T00:39:18.347Z,63.73
2019-04-19T00:42:20.588Z,63.54
2019-04-19T00:45:22.440Z,63.92
2019-04-19T00:48:08.249Z,65.78
2019-04-19T00:50:59.656Z,67.02
2019-04-19T00:53:31.510Z,67.77
2019-04-19T00:55:43.937Z,68.25
2019-04-19T00:57:48.561Z,68.15
2019-04-19T00:59:33.043Z,68.06
2019-04-19T01:01:13.388Z,67.65
2019-04-19T01:02:51.121Z,68.69
2019-04-19T01:04:20.313Z,68.98
2019-04-19T01:06:00.442Z,69.64
2019-04-19T01:07:37.353Z,69.45
2019-04-19T01:09:18.952Z,70.49
2019-04-19T01:11:39.504Z,71.62
2019-04-19T01:14:20.028Z,70.43
2019-04-19T01:16:50.609Z,70.24
2019-04-19T01:19:14.348Z,69.67
2019-04-19T01:20:31.377Z,69.57
2019-04-19T01:21:43.178Z,69.57
2019-04-19T01:23:08.833Z,69.48
2019-04-19T01:24:41.292Z,69.38
2019-04-19T01:26:09.746Z,69.01
2019-04-19T01:27:32.968Z,69.1
2019-04-19T01:29:04.082Z,68.35
2019-04-19T01:30:38.397Z,68.54
2019-04-19T01:32:08.078Z,68.35
2019-04-19T01:33:41.387Z,68.4
2019-04-19T01:35:12.133Z,68.59
2019-04-19T01:36:41.639Z,68.88
2019-04-19T01:38:06.937Z,69.54
2019-04-19T01:39:56.533Z,70.01
2019-04-19T01:42:52.855Z,70.39
2019-04-19T01:46:03.292Z,70.49
2019-04-19T01:49:00.211Z,71.4
2019-04-19T01:51:51.111Z,71.69
2019-04-19T01:55:01.372Z,70.58
2019-04-19T01:56:51.890Z,70.97
2019-04-19T01:58:22.853Z,70.68
2019-04-19T01:59:48.788Z,70.68
2019-04-19T02:01:19.552Z,70.49
2019-04-19T02:02:54.682Z,70.49
2019-04-19T02:04:26.614Z,71.81
2019-04-19T02:05:53.847Z,72
2019-04-19T02:07:32.637Z,71.62
2019-04-19T02:09:00.116Z,71.59
2019-04-19T02:10:40.557Z,72.19
2019-04-19T02:13:03.840Z,71.44
2019-04-19T02:15:07.751Z,71.06
2019-04-19T02:17:03.019Z,70.39
2019-04-19T02:18:32.184Z,70.97
2019-04-19T02:19:58.856Z,70.49
2019-04-19T02:21:32.988Z,71.06
2019-04-19T02:23:07.873Z,70.58
2019-04-19T02:24:42.225Z,71.34
2019-04-19T02:26:18.155Z,71.81
2019-04-19T02:27:45.420Z,71.91
2019-04-19T02:29:14.443Z,71.25
2019-04-19T02:31:18.332Z,70.78
2019-04-19T02:39:10.528Z,70.39
2019-04-19T02:43:06.324Z,70.58
2019-04-19T02:51:57.386Z,72.73
2019-04-19T03:00:21.140Z,71.97
2019-04-19T03:05:18.462Z,72.92
2019-04-19T03:07:38.966Z,72.44
2019-04-19T03:08:54.918Z,71.53
2019-04-19T03:10:18.179Z,71.44
2019-04-19T03:12:31.586Z,71.25
2019-04-19T03:15:22.365Z,71.15
2019-04-19T03:18:42.099Z,70.3
2019-04-19T03:21:30.632Z,71.25
2019-04-19T03:24:14.018Z,71.97
2019-04-19T03:26:59.947Z,73.86
2019-04-19T03:29:10.824Z,73.86
2019-04-19T03:31:48.746Z,73.96
2019-04-19T03:36:11.499Z,73.68
2019-04-19T03:39:03.720Z,73.86
2019-04-19T03:42:27.050Z,74.15
2019-04-19T03:45:39.350Z,73.2
2019-04-19T03:48:55.951Z,73.58
2019-04-19T03:52:31.183Z,73.86
2019-04-19T03:56:01.476Z,73.11
2019-04-19T03:58:27.366Z,72.92
2019-04-19T03:59:41.757Z,73.01
2019-04-19T04:00:54.372Z,73.01
2019-04-19T04:02:07.762Z,72.92
2019-04-19T04:03:48.163Z,72.82
2019-04-19T04:05:30.199Z,72.92
2019-04-19T04:07:13.925Z,72.25
2019-04-19T04:08:55.179Z,72.53
2019-04-19T04:10:31.048Z,72.82
2019-04-19T04:12:19.451Z,72.53
2019-04-19T04:14:49.421Z,73.49
2019-04-19T04:16:55.342Z,73.86
2019-04-19T04:18:09.315Z,73.96
2019-04-19T04:19:22.723Z,73.86
2019-04-19T04:20:35.163Z,73.68
2019-04-19T04:22:07.339Z,74.52
2019-04-19T04:24:08.891Z,75.09
2019-04-19T04:26:09.840Z,74.62
2019-04-19T04:28:26.002Z,73.2
2019-04-19T04:30:39.161Z,72.73
2019-04-19T04:33:05.113Z,73.01
2019-04-19T04:35:27.746Z,72.1
2019-04-19T04:38:14.203Z,72.1
2019-04-19T04:39:47.598Z,73.14
2019-04-19T04:41:14.121Z,73.43
2019-04-19T04:43:03.766Z,73.24
2019-04-19T04:46:08.604Z,72.67
2019-04-19T04:49:28.219Z,71.81
2019-04-19T04:52:26.994Z,71.44
2019-04-19T04:53:53.160Z,71.44
2019-04-19T04:55:03.414Z,71.81
2019-04-19T04:56:17.166Z,71.06
2019-04-19T04:58:02.687Z,70.39
2019-04-19T04:59:45.269Z,70.78
2019-04-19T05:01:26.848Z,70.68
2019-04-19T05:04:01.617Z,70.68
2019-04-19T05:06:54.141Z,71.44
2019-04-19T05:09:57.887Z,72
2019-04-19T05:13:21.317Z,71.15
2019-04-19T05:20:22.237Z,70.58
2019-04-19T05:23:17.306Z,70.49
2019-04-19T05:26:56.193Z,70.11
2019-04-19T05:29:49.689Z,71.38
2019-04-19T05:31:22.452Z,71.09
2019-04-19T05:33:22.598Z,71.09
2019-04-19T05:36:23.467Z,70.15
2019-04-19T05:39:31.222Z,69.67
2019-04-19T05:42:24.415Z,69.1
2019-04-19T05:46:03.386Z,69.86
2019-04-19T05:48:50.594Z,70.15
2019-04-19T05:51:54.729Z,70.15
2019-04-19T05:54:17.373Z,70.15
2019-04-19T05:55:30.902Z,70.15
2019-04-19T05:56:55.448Z,69.77
2019-04-19T05:59:31.516Z,70.15
2019-04-19T06:01:58.544Z,71.57
2019-04-19T06:04:20.815Z,69.52
2019-04-19T06:07:42.458Z,68.57
2019-04-19T06:09:31.058Z,67.33
2019-04-19T06:10:56.571Z,67.9
2019-04-19T06:12:33.234Z,68.19
2019-04-19T06:14:56.622Z,68.19
2019-04-19T06:17:56.040Z,68.38
2019-04-19T06:20:47.834Z,67.14
2019-04-19T06:23:53.433Z,68
2019-04-19T06:27:35.092Z,67.24
2019-04-19T06:30:54.523Z,67.05
2019-04-19T06:34:30.502Z,68.57
2019-04-19T06:36:40.063Z,69.23
2019-04-19T06:38:20.708Z,70.18
2019-04-19T06:39:33.305Z,69.52
2019-04-19T06:41:01.876Z,70.18
2019-04-19T06:42:49.755Z,70.56
2019-04-19T06:45:22.571Z,70.09
2019-04-19T06:47:49.597Z,70.75
2019-04-19T06:49:33.027Z,69.8
2019-04-19T06:50:54.513Z,69.42
2019-04-19T06:52:44.768Z,69.71
2019-04-19T06:54:07.037Z,69.42
2019-04-19T06:55:51.400Z,70.56
2019-04-19T06:57:53.042Z,69.99
2019-04-19T07:00:12.787Z,69.9
2019-04-19T07:02:16.226Z,69.42
2019-04-19T07:03:28.098Z,68.85
2019-04-19T07:05:08.743Z,68.48
2019-04-19T07:08:02.143Z,67.05
2019-04-19T07:12:10.437Z,66.39
2019-04-19T07:14:36.431Z,66.61
2019-04-19T07:17:53.300Z,66.14
2019-04-19T07:20:42.163Z,65.09
2019-04-19T07:24:07.766Z,64.75
2019-04-19T07:27:26.889Z,63.7
2019-04-19T07:29:15.550Z,63.79
2019-04-19T07:30:29.117Z,62.85
2019-04-19T07:31:51.482Z,61.93
2019-04-19T07:33:18.976Z,60.69
2019-04-19T07:36:22.078Z,60.41
2019-04-19T07:39:52.285Z,59.46
2019-04-19T07:43:00.139Z,59.68
2019-04-19T07:45:24.614Z,58.83
2019-04-19T07:48:12.342Z,58.09
2019-04-19T07:49:57.203Z,58.66
2019-04-19T07:51:54.695Z,58.57
2019-04-19T07:53:49.598Z,59.42
2019-04-19T07:55:20.646Z,58.18
2019-04-19T07:57:09.712Z,57.74
2019-04-19T08:12:49.176Z,56.44
2019-04-19T08:28:56.197Z,56.02
2019-04-19T08:31:07.184Z,57.32
2019-04-19T08:32:24.074Z,57.87
2019-04-19T08:33:38.752Z,58.25
2019-04-19T08:35:06.959Z,58.44
2019-04-19T08:36:43.374Z,58.34
2019-04-19T08:38:25.539Z,58.53
2019-04-19T08:40:37.209Z,58.34
2019-04-19T08:43:24.880Z,57.2
2019-04-19T08:45:40.615Z,56.18
2019-04-19T08:46:51.825Z,55.8
2019-04-19T08:48:20.009Z,55.32
2019-04-19T08:50:08.690Z,54.08
2019-04-19T08:51:35.227Z,54.85
2019-04-19T08:53:13.328Z,55.61
2019-04-19T08:56:11.103Z,54.21
2019-04-19T08:58:13.375Z,53.73
2019-04-19T09:01:44.308Z,52.3
2019-04-19T09:04:49.312Z,53.25
2019-04-19T09:08:22.615Z,53.52
2019-04-19T09:11:38.693Z,54.91
2019-04-19T09:18:17.745Z,57.01
2019-04-19T09:21:48.349Z,55.8
2019-04-19T09:24:12.775Z,53.99
2019-04-19T09:26:35.075Z,52.59
2019-04-19T09:29:54.716Z,51.35
2019-04-19T09:32:32.281Z,50.3
2019-04-19T09:34:08.918Z,50.52
2019-04-19T09:35:49.403Z,51.28
2019-04-19T09:37:50.664Z,54.33
2019-04-19T09:40:11.430Z,54.11
2019-04-19T09:42:15.476Z,54.47
2019-04-19T09:44:38.182Z,54.37
2019-04-19T09:46:06.483Z,54.25
2019-04-19T09:47:18.796Z,55.68
2019-04-19T09:49:08.352Z,55.39
2019-04-19T09:51:50.795Z,55.39
2019-04-19T09:55:26.505Z,55.1
2019-04-19T09:58:35.143Z,55.9
2019-04-19T10:00:33.908Z,55.26
2019-04-19T10:01:56.007Z,54.3
2019-04-19T10:03:43.820Z,54.11
2019-04-19T10:05:10.502Z,54.11
2019-04-19T10:06:23.169Z,53.38
2019-04-19T10:07:35.038Z,53.19
2019-04-19T10:08:46.059Z,52.42
2019-04-19T10:10:09.517Z,54.33
2019-04-19T10:11:25.630Z,54.21
2019-04-19T10:12:35.850Z,53.83
2019-04-19T10:13:46.628Z,54.68
2019-04-19T10:15:00.191Z,54.97
2019-04-19T10:16:12.825Z,57.6
2019-04-19T10:17:25.096Z,57.6
2019-04-19T10:18:59.042Z,57.04
2019-04-19T10:20:18.437Z,57.42
2019-04-19T10:21:38.445Z,56.68
2019-04-19T10:22:53.348Z,55.73
2019-04-19T10:24:18.239Z,53.92
2019-04-19T10:25:39.744Z,53.28
2019-04-19T10:27:15.248Z,52.9
2019-04-19T10:28:30.162Z,52.14
2019-04-19T10:29:47.038Z,52.07
2019-04-19T10:30:59.215Z,51.4
2019-04-19T10:32:11.003Z,50.92
2019-04-19T10:33:42.366Z,51.02
2019-04-19T10:35:09.834Z,51.04
2019-04-19T10:36:22.468Z,50.76
2019-04-19T10:37:34.117Z,50.47
2019-04-19T10:38:48.283Z,50.38
2019-04-19T10:40:05.856Z,49.99
2019-04-19T10:41:16.117Z,50.21
2019-04-19T10:42:29.702Z,49.64
2019-04-19T10:43:42.098Z,49.54
2019-04-19T10:45:23.836Z,49.26
2019-04-19T10:46:36.545Z,49.44
2019-04-19T10:47:49.436Z,48.59
2019-04-19T10:49:17.095Z,48.33
2019-04-19T10:51:04.584Z,47.94
2019-04-19T10:52:19.228Z,48.42
2019-04-19T10:53:30.274Z,48.13
2019-04-19T10:54:41.510Z,47.18
2019-04-19T10:55:54.030Z,47.47
2019-04-19T10:57:06.516Z,48.52
2019-04-19T10:58:21.564Z,48.42
2019-04-19T10:59:34.294Z,48.88
2019-04-19T11:00:45.641Z,48.02
2019-04-19T11:01:57.717Z,47.34
2019-04-19T11:03:09.179Z,47.23
2019-04-19T11:04:20.662Z,47.82
2019-04-19T11:05:32.507Z,48.28
2019-04-19T11:06:45.227Z,47.06
2019-04-19T11:07:56.400Z,47.13
2019-04-19T11:09:09.257Z,47.63
2019-04-19T11:10:20.391Z,47.42
2019-04-19T11:11:31.760Z,46.84
2019-04-19T11:12:43.294Z,46.58
2019-04-19T11:13:56.559Z,46.97
2019-04-19T11:15:10.575Z,48.02
2019-04-19T11:16:21.902Z,48.02
2019-04-19T11:17:34.295Z,48.21
2019-04-19T11:18:48.112Z,47.54
2019-04-19T11:20:35.173Z,47.75
2019-04-19T11:22:01.826Z,46.22
2019-04-19T11:23:15.995Z,45.48
2019-04-19T11:24:30.167Z,44.91
2019-04-19T11:25:46.103Z,44.36
2019-04-19T11:27:01.205Z,43.52
2019-04-19T11:28:13.011Z,43.33
2019-04-19T11:29:24.394Z,43.06
2019-04-19T11:30:37.529Z,42.7
2019-04-19T11:31:50.148Z,42.22
2019-04-19T11:33:01.444Z,40.9
2019-04-19T11:34:15.040Z,40.64
2019-04-19T11:35:25.856Z,39.77
2019-04-19T11:36:38.135Z,40.27
2019-04-19T11:37:51.617Z,39.62
2019-04-19T11:39:03.495Z,39.45
2019-04-19T11:40:15.654Z,38.12
2019-04-19T11:41:29.139Z,37.85
2019-04-19T11:42:39.793Z,37.01
2019-04-19T11:43:51.910Z,36.83
2019-04-19T11:45:12.778Z,36.56
2019-04-19T11:46:25.292Z,35.81
2019-04-19T11:47:35.674Z,35.04
2019-04-19T11:48:46.453Z,34.67
2019-04-19T11:49:58.289Z,34.86
2019-04-19T11:51:10.227Z,34.69
2019-04-19T11:52:22.418Z,34.21
2019-04-19T11:53:35.018Z,33.36
2019-04-19T11:54:50.292Z,32.21
2019-04-19T11:56:07.029Z,30.87
2019-04-19T11:57:18.555Z,31.72
2019-04-19T11:58:31.533Z,32.1
2019-04-19T11:59:53.924Z,32.03
2019-04-19T12:01:10.311Z,31.86
2019-04-19T12:02:26.149Z,30.91
2019-04-19T12:03:43.688Z,30.63
2019-04-19T12:04:55.274Z,29.69
2019-04-19T12:06:27.088Z,29.6
2019-04-19T12:07:39.171Z,28.94
2019-04-19T12:08:52.587Z,29.33
2019-04-19T12:10:06.067Z,28.86
2019-04-19T12:11:17.941Z,28.47
2019-04-19T12:12:30.827Z,28.86
2019-04-19T12:13:43.786Z,27.71
2019-04-19T12:14:55.810Z,27.71
2019-04-19T12:16:08.951Z,27.43
2019-04-19T12:17:20.922Z,26.95
2019-04-19T12:18:33.917Z,26.85
2019-04-19T12:20:02.605Z,25.31
2019-04-19T12:21:18.900Z,25.02
2019-04-19T12:22:30.915Z,24.93
2019-04-19T12:23:41.433Z,24.27
2019-04-19T12:24:57.382Z,24.46
2019-04-19T12:26:09.323Z,23.69
2019-04-19T12:27:21.254Z,23.2
2019-04-19T12:28:33.353Z,23.31
2019-04-19T12:29:53.272Z,22.53
2019-04-19T12:31:09.753Z,21.77
2019-04-19T12:32:23.042Z,21.37
2019-04-19T12:33:33.691Z,21.68
2019-04-19T12:34:45.075Z,21.39
2019-04-19T12:35:57.427Z,20.91
2019-04-19T12:37:11.556Z,20.72
2019-04-19T12:38:23.984Z,20.04
2019-04-19T12:39:37.206Z,21.02
2019-04-19T12:40:49.800Z,20.34
2019-04-19T12:42:02.224Z,20.35
2019-04-19T12:43:16.063Z,20.45
2019-04-19T12:44:29.516Z,20.06
2019-04-19T12:45:47.205Z,20.26
2019-04-19T12:47:04.932Z,20.17
2019-04-19T12:48:17.319Z,19.88
2019-04-19T12:49:29.222Z,19.49
2019-04-19T12:50:54.064Z,19.7
2019-04-19T12:52:04.376Z,19.79
2019-04-19T12:53:17.248Z,19.01
2019-04-19T12:54:29.840Z,18.43
2019-04-19T12:55:42.287Z,19.02
2019-04-19T12:56:54.448Z,18.92
2019-04-19T12:58:07.982Z,18.92
2019-04-19T12:59:24.779Z,18.44
2019-04-19T13:00:36.404Z,18.73
2019-04-19T13:01:49.980Z,18.34
2019-04-19T13:03:02.701Z,17.76
2019-04-19T13:04:13.178Z,17.76
2019-04-19T13:05:26.595Z,17.85
2019-04-19T13:06:40.409Z,16.78
2019-04-19T13:07:53.870Z,17.07
2019-04-19T13:09:05.780Z,17.06
2019-04-19T13:10:18.198Z,16.96
2019-04-19T13:11:29.577Z,16.67
2019-04-19T13:12:43.872Z,16.49
2019-04-19T13:13:57.625Z,16
2019-04-19T13:15:09.464Z,16.2
2019-04-19T13:16:22.172Z,15.81
2019-04-19T13:17:33.900Z,16.2
2019-04-19T13:18:45.821Z,15.81
2019-04-19T13:20:15.311Z,15.43
2019-04-19T13:21:42.567Z,15.22
2019-04-19T13:22:54.527Z,15.14
2019-04-19T13:24:05.044Z,15.33
2019-04-19T13:25:19.914Z,15.23
2019-04-19T13:26:33.436Z,14.75
2019-04-19T13:27:56.197Z,14.75
2019-04-19T13:29:11.628Z,14.76
2019-04-19T13:30:43.219Z,14.27
2019-04-19T13:32:06.190Z,14.66
2019-04-19T13:33:16.981Z,14.17
2019-04-19T13:34:29.791Z,14.17
2019-04-19T13:35:43.218Z,13.68
2019-04-19T13:36:55.335Z,14.17
2019-04-19T13:38:07.333Z,14.37
2019-04-19T13:39:19.253Z,14.37
2019-04-19T13:40:30.783Z,14.07
2019-04-19T13:41:43.370Z,14.36
2019-04-19T13:43:01.877Z,14.95
2019-04-19T13:44:14.654Z,14.76
2019-04-19T13:45:34.484Z,14.17
2019-04-19T13:46:51.036Z,14.47
2019-04-19T13:48:02.689Z,14.86
2019-04-19T13:49:14.653Z,14.67
2019-04-19T13:50:37.751Z,14.77
2019-04-19T13:51:54.978Z,14.68
2019-04-19T13:53:07.117Z,14.48
2019-04-19T13:54:18.964Z,14.58
2019-04-19T13:55:31.175Z,14.97
2019-04-19T13:56:43.106Z,15.08
2019-04-19T13:57:57.653Z,14
2019-04-19T13:59:08.015Z,13.4
2019-04-19T14:00:20.851Z,13.1
2019-04-19T14:01:34.856Z,13.67
2019-04-19T14:02:47.867Z,13.95
2019-04-19T14:03:59.875Z,13.75
2019-04-19T14:05:11.836Z,14.23
2019-04-19T14:06:24.342Z,14.81
2019-04-19T14:07:37.214Z,14.6
2019-04-19T14:08:51.154Z,13.73
2019-04-19T14:10:03.671Z,14.59
2019-04-19T14:11:17.563Z,14.49
2019-04-19T14:12:30.951Z,14.88
2019-04-19T14:13:49.019Z,14.88
2019-04-19T14:15:09.163Z,16.83
2019-04-19T14:16:21.589Z,16.53
2019-04-19T14:17:34.057Z,16.24
2019-04-19T14:18:46.673Z,16.05
2019-04-19T14:20:00.676Z,15.77
2019-04-19T14:21:11.170Z,16.26
2019-04-19T14:22:23.683Z,16.27
2019-04-19T14:23:35.812Z,16.17
2019-04-19T14:24:53.161Z,15.88
2019-04-19T14:26:07.912Z,16.85
2019-04-19T14:27:33.528Z,17.34
2019-04-19T14:28:45.805Z,17.34
2019-04-19T14:29:59.921Z,16.56
2019-04-19T14:31:12.863Z,15.68
2019-04-19T14:32:25.734Z,16.17
2019-04-19T14:33:39.009Z,15.97
2019-04-19T14:34:52.302Z,16.36
2019-04-19T14:36:05.971Z,17.24
2019-04-19T14:37:18.929Z,16.84
2019-04-19T14:38:32.229Z,16.64
2019-04-19T14:39:45.055Z,16.36
2019-04-19T14:40:57.967Z,16.94
2019-04-19T14:42:11.645Z,17.03
2019-04-19T14:43:22.909Z,16.35
2019-04-19T14:44:33.991Z,16.83
2019-04-19T14:45:47.055Z,17.22
2019-04-19T14:46:59.220Z,17.02
2019-04-19T14:48:15.412Z,16.83
2019-04-19T14:49:47.455Z,16.53
2019-04-19T14:51:12.054Z,17.58
2019-04-19T14:52:40.153Z,17
2019-04-19T14:53:52.153Z,16.99
2019-04-19T14:55:03.928Z,16.12
2019-04-19T14:56:17.505Z,15.92
2019-04-19T14:57:30.429Z,15.92
2019-04-19T14:58:40.727Z,15.74
2019-04-19T14:59:51.642Z,15.94
2019-04-19T15:01:03.679Z,16.32
2019-04-19T15:02:15.721Z,15.84
2019-04-19T15:03:28.193Z,15.94
2019-04-19T15:04:40.358Z,16.62
2019-04-19T15:05:52.334Z,16.43
2019-04-19T15:07:05.111Z,16.72
2019-04-19T15:08:15.343Z,16.24
2019-04-19T15:09:26.066Z,16.04
2019-04-19T15:10:39.734Z,15.94
2019-04-19T15:11:51.001Z,15.94
2019-04-19T15:13:01.261Z,14.68
2019-04-19T15:14:14.719Z,15.26
2019-04-19T15:15:27.105Z,15.07
2019-04-19T15:16:41.305Z,15.25
2019-04-19T15:17:53.876Z,15.07
2019-04-19T15:19:06.562Z,15.25
2019-04-19T15:20:18.498Z,14.58
2019-04-19T15:21:30.506Z,14.68
2019-04-19T15:22:44.701Z,14.96
2019-04-19T15:23:56.959Z,15.35
2019-04-19T15:25:09.111Z,15.75
2019-04-19T15:26:22.923Z,15.55
2019-04-19T15:27:35.267Z,16.04
2019-04-19T15:28:47.356Z,15.55
2019-04-19T15:29:59.340Z,14.87
2019-04-19T15:31:10.696Z,14.68
2019-04-19T15:32:22.680Z,14.87
2019-04-19T15:33:36.733Z,15.26
2019-04-19T15:34:47.943Z,15.35
2019-04-19T15:36:03.407Z,15.35
2019-04-19T15:37:16.454Z,16.13
2019-04-19T15:38:28.470Z,15.44
2019-04-19T15:39:42.016Z,15.05
2019-04-19T15:40:52.560Z,15.14
2019-04-19T15:42:04.888Z,15.44
2019-04-19T15:43:17.513Z,15.62
2019-04-19T15:44:29.005Z,15.72
2019-04-19T15:45:41.432Z,15.71
2019-04-19T15:46:54.033Z,15.99
2019-04-19T15:48:08.837Z,16.67
2019-04-19T15:49:42.402Z,17.54
2019-04-19T15:51:10.778Z,17.34
2019-04-19T15:52:44.468Z,17.43
2019-04-19T15:53:58.502Z,17.61
2019-04-19T15:55:10.049Z,18.49
2019-04-19T15:56:20.748Z,18.19
2019-04-19T15:57:34.202Z,18.95
2019-04-19T15:58:45.177Z,20.2
2019-04-19T15:59:58.275Z,20.97
2019-04-19T16:01:10.560Z,20.96
2019-04-19T16:02:22.626Z,21.82
2019-04-19T16:03:35.934Z,21.53
2019-04-19T16:04:48.007Z,21.52
2019-04-19T16:05:58.577Z,22.29
2019-04-19T16:07:10.419Z,22.67
2019-04-19T16:08:22.956Z,22.47
2019-04-19T16:09:35.758Z,22.46
2019-04-19T16:10:50.542Z,22.56
2019-04-19T16:12:02.812Z,22.26
2019-04-19T16:13:14.356Z,23.61
2019-04-19T16:14:26.491Z,23.6
2019-04-19T16:15:38.537Z,23.5
2019-04-19T16:16:51.541Z,23.97
2019-04-19T16:18:04.508Z,24.07
2019-04-19T16:19:16.866Z,24.26
2019-04-19T16:20:29.665Z,24.15
2019-04-19T16:21:55.046Z,23.96
2019-04-19T16:23:12.606Z,24.44
2019-04-19T16:24:25.073Z,24.63
2019-04-19T16:25:36.565Z,24.91
2019-04-19T16:26:51.516Z,25.09
2019-04-19T16:28:03.727Z,25.09
2019-04-19T16:29:36.357Z,25.38
2019-04-19T16:31:04.615Z,25.18
2019-04-19T16:32:17.186Z,25.57
2019-04-19T16:33:29.622Z,25.94
2019-04-19T16:34:41.263Z,26.04
2019-04-19T16:35:52.423Z,25.94
2019-04-19T16:37:06.195Z,25.94
2019-04-19T16:38:19.762Z,25.46
2019-04-19T16:39:33.676Z,25.64
2019-04-19T16:40:46.301Z,25.26
2019-04-19T16:41:58.598Z,26.23
2019-04-19T16:43:11.172Z,26.31
2019-04-19T16:44:23.464Z,26.03
2019-04-19T16:45:35.719Z,25.94
2019-04-19T16:46:47.891Z,26.12
2019-04-19T16:48:00.107Z,25.93
2019-04-19T16:49:16.250Z,26.42
2019-04-19T16:50:28.396Z,26.13
2019-04-19T16:51:53.941Z,26.51
2019-04-19T16:53:10.930Z,26.32
2019-04-19T16:54:22.823Z,26.9
2019-04-19T16:55:34.134Z,26.32
2019-04-19T16:56:45.784Z,26.62
2019-04-19T16:58:17.191Z,26.61
2019-04-19T16:59:30.370Z,26.51
2019-04-19T17:00:43.367Z,27.38
2019-04-19T17:01:55.374Z,26.43
2019-04-19T17:03:07.509Z,26.62
2019-04-19T17:04:18.071Z,26.53
2019-04-19T17:05:33.046Z,26.43
2019-04-19T17:06:45.167Z,26.54
2019-04-19T17:07:57.779Z,26.94
2019-04-19T17:09:11.291Z,27.42
2019-04-19T17:10:26.582Z,27.72
2019-04-19T17:11:38.154Z,26.47
2019-04-19T17:12:51.469Z,26.1
2019-04-19T17:14:05.239Z,23.51
2019-04-19T17:15:19.050Z,21.78
2019-04-19T17:16:34.420Z,20.73
2019-04-19T17:17:48.807Z,20.05
2019-04-19T17:18:59.544Z,19.96
2019-04-19T17:20:13.279Z,19.96
2019-04-19T17:21:25.833Z,19.88
2019-04-19T17:22:50.855Z,19.68
2019-04-19T17:24:03.234Z,22.02
2019-04-19T17:25:17.417Z,22.02
2019-04-19T17:26:29.181Z,22.41
2019-04-19T17:27:41.356Z,22.03
2019-04-19T17:28:53.274Z,20.87
2019-04-19T17:30:04.669Z,19.71
2019-04-19T17:31:18.550Z,19.71
2019-04-19T17:32:30.566Z,19.53
2019-04-19T17:33:42.515Z,18.95
2019-04-19T17:34:54.482Z,18.85
2019-04-19T17:36:06.421Z,18.85
2019-04-19T17:37:18.440Z,18.85
2019-04-19T17:38:46.292Z,19.04
2019-04-19T17:40:04.705Z,19.71
2019-04-19T17:41:18.566Z,19.9
2019-04-19T17:42:31.028Z,20.66
2019-04-19T17:43:43.977Z,21.23
2019-04-19T17:44:57.464Z,21.8
2019-04-19T17:46:10.430Z,21.8
2019-04-19T17:47:33.798Z,22.85
2019-04-19T17:48:51.002Z,24.38
2019-04-19T17:50:02.878Z,24.46
2019-04-19T17:51:14.276Z,25.12
2019-04-19T17:52:32.962Z,24.74
2019-04-19T17:53:51.743Z,25.02
2019-04-19T17:55:27.259Z,25.31
2019-04-19T17:56:59.833Z,24.62
2019-04-19T17:58:12.146Z,24.41
2019-04-19T17:59:25.359Z,24.69
2019-04-19T18:00:37.121Z,25.56
2019-04-19T18:01:48.928Z,26.21
2019-04-19T18:03:01.732Z,26.78
2019-04-19T18:04:15.374Z,27.26
2019-04-19T18:05:29.743Z,27.72
2019-04-19T18:06:42.950Z,27.53
2019-04-19T18:08:12.250Z,28.96
2019-04-19T18:09:53.930Z,28.86
2019-04-19T18:11:32.278Z,29.23
2019-04-19T18:12:45.801Z,29.8
2019-04-19T18:13:59.654Z,29.88
2019-04-19T18:15:12.175Z,29.5
2019-04-19T18:16:23.105Z,29.41
2019-04-19T18:17:36.007Z,29.31
2019-04-19T18:19:02.285Z,29.58
2019-04-19T18:20:29.063Z,29.77
2019-04-19T18:21:45.807Z,30.05
2019-04-19T18:23:21.281Z,30.52
2019-04-19T18:25:10.663Z,30.52
2019-04-19T18:26:34.709Z,30.99
2019-04-19T18:27:58.458Z,31.37
2019-04-19T18:29:28.468Z,31.07
2019-04-19T18:30:52.309Z,31.64
2019-04-19T18:32:12.500Z,31.74
2019-04-19T18:33:27.214Z,31.93
2019-04-19T18:34:49.884Z,32.1
2019-04-19T18:36:15.223Z,32.29
2019-04-19T18:37:51.271Z,32.68
2019-04-19T18:39:02.724Z,32.28
2019-04-19T18:40:15.560Z,32.37
2019-04-19T18:41:27.813Z,32.28
2019-04-19T18:43:07.452Z,32.28
2019-04-19T18:45:14.725Z,33.03
2019-04-19T18:46:41.141Z,32.84
2019-04-19T18:47:53.169Z,33.03
2019-04-19T18:49:05.834Z,32.93
2019-04-19T18:50:18.627Z,33.12
2019-04-19T18:51:44.681Z,33.5
2019-04-19T18:53:28.411Z,34.36
2019-04-19T18:55:38.342Z,34.92
2019-04-19T18:57:07.744Z,35.21
2019-04-19T18:58:30.029Z,35.49
2019-04-19T18:59:57.170Z,35.59
2019-04-19T19:01:25.492Z,35.78
2019-04-19T19:02:59.412Z,36.35
2019-04-19T19:04:26.270Z,35.95
2019-04-19T19:05:55.646Z,35.97
2019-04-19T19:07:25.506Z,36.14
2019-04-19T19:08:54.184Z,35.95
2019-04-19T19:10:44.280Z,36.24
2019-04-19T19:12:16.741Z,36.43
2019-04-19T19:13:37.245Z,37
2019-04-19T19:15:02.907Z,37.19
2019-04-19T19:16:25.878Z,37.86
2019-04-19T19:17:56.373Z,36.9
2019-04-19T19:19:26.691Z,37.27
2019-04-19T19:21:00.073Z,37.08
2019-04-19T19:22:31.729Z,36.51
2019-04-19T19:25:18.331Z,37.74
2019-04-19T19:27:27.362Z,37.65
2019-04-19T19:28:44.280Z,37.73
2019-04-19T19:29:56.339Z,37.44
2019-04-19T19:31:07.547Z,37.06
2019-04-19T19:32:22.464Z,36.87
2019-04-19T19:33:46.444Z,38.87
2019-04-19T19:35:13.376Z,40.01
2019-04-19T19:36:48.949Z,41.16
2019-04-19T19:40:19.531Z,42.77
2019-04-19T19:43:29.158Z,42.96
2019-04-19T19:46:01.893Z,42.76
2019-04-19T19:49:51.654Z,42.08
2019-04-19T19:53:35.199Z,41.72
2019-04-19T19:57:16.351Z,41.82
2019-04-19T19:59:34.710Z,41.33
2019-04-19T20:01:53.680Z,44.66
2019-04-19T20:04:04.917Z,45.54
2019-04-19T20:05:31.624Z,46.18
2019-04-19T20:07:05.934Z,45.61
2019-04-19T20:08:42.242Z,46.37
2019-04-19T20:10:12.644Z,47.13
2019-04-19T20:11:41.293Z,47.32
2019-04-19T20:13:03.371Z,46.94
2019-04-19T20:14:36.532Z,46.47
2019-04-19T20:15:59.183Z,46.92
2019-04-19T20:17:29.140Z,47.2
2019-04-19T20:18:59.039Z,45.3
2019-04-19T20:20:20.325Z,44.16
2019-04-19T20:21:59.054Z,43.21
2019-04-19T20:23:31.473Z,43.11
2019-04-19T20:25:51.754Z,42.73
2019-04-19T20:27:56.302Z,43.21
2019-04-19T20:29:22.030Z,43.3
2019-04-19T20:30:50.388Z,43.02
2019-04-19T20:32:22.447Z,43.4
2019-04-19T20:33:49.874Z,43.3
2019-04-19T20:35:21.409Z,43.21
2019-04-19T20:36:43.982Z,44.73
2019-04-19T20:38:07.240Z,46.15
2019-04-19T20:39:36.029Z,45.87
2019-04-19T20:41:03.590Z,46.25
2019-04-19T20:42:46.148Z,46.25
2019-04-19T20:45:26.376Z,47.37
2019-04-19T20:46:58.366Z,48.61
2019-04-19T20:48:23.129Z,48.9
2019-04-19T20:49:48.078Z,48.49
2019-04-19T20:51:44.719Z,48.01
2019-04-19T20:54:03.737Z,48.3
2019-04-19T20:57:25.788Z,49.25
2019-04-19T20:59:47.149Z,48.3
2019-04-19T21:01:10.427Z,48.21
2019-04-19T21:02:35.488Z,47.82
2019-04-19T21:03:53.045Z,47.71
2019-04-19T21:05:22.300Z,46.49
2019-04-19T21:06:52.155Z,45.45
2019-04-19T21:08:27.035Z,44.4
2019-04-19T21:09:52.075Z,45.16
2019-04-19T21:11:21.303Z,46.01
2019-04-19T21:12:55.454Z,45.73
2019-04-19T21:14:36.816Z,46.2
2019-04-19T21:15:54.496Z,46.4
2019-04-19T21:17:10.555Z,47.63
2019-04-19T21:18:29.448Z,47.63
2019-04-19T21:19:50.249Z,47.42
2019-04-19T21:21:12.772Z,47.8
2019-04-19T21:22:36.583Z,47.42
2019-04-19T21:24:01.833Z,47.33
2019-04-19T21:25:38.068Z,46.28
2019-04-19T21:27:22.086Z,47.61
2019-04-19T21:28:57.257Z,47.61
2019-04-19T21:30:14.627Z,48.27
2019-04-19T21:31:45.767Z,48.27
2019-04-19T21:33:15.775Z,48.75
2019-04-19T21:34:36.587Z,48.46
2019-04-19T21:36:04.439Z,49.22
2019-04-19T21:37:36.316Z,50.24
2019-04-19T21:39:06.323Z,50.62
2019-04-19T21:40:37.933Z,50.81
2019-04-19T21:42:02.809Z,51.86
2019-04-19T21:43:21.126Z,52.14